sensor_id;sensor_type;location;lat;lon;timestamp;temperature;humidity
56428;DHT22;42331;53.578;9.760;2023-03-03T00:01:05;1.00;99.90
56428;DHT22;42331;53.578;9.760;2023-03-03T00:03:36;1.10;99.90
56428;DHT22;42331;53.578;9.760;2023-03-03T00:06:11;1.20;99.90
56428;DHT22;42331;53.578;9.760;2023-03-03T00:08:43;1.20;99.90
56428;DHT22;42331;53.578;9.760;2023-03-03T00:11:14;1.30;99.90
56428;DHT22;42331;53.578;9.760;2023-03-03T00:13:55;1.30;99.90
56428;DHT22;42331;53.578;9.760;2023-03-03T00:16:36;1.30;99.90
56428;DHT22;42331;53.578;9.760;2023-03-03T00:19:14;1.30;99.90
56428;DHT22;42331;53.578;9.760;2023-03-03T00:21:48;1.30;99.90
56428;DHT22;42331;53.578;9.760;2023-03-03T00:26:53;1.30;99.90
56428;DHT22;42331;53.578;9.760;2023-03-03T00:29:37;1.40;99.90
56428;DHT22;42331;53.578;9.760;2023-03-03T00:32:24;1.40;99.90
56428;DHT22;42331;53.578;9.760;2023-03-03T00:35:01;1.40;99.90
56428;DHT22;42331;53.578;9.760;2023-03-03T00:37:47;1.40;99.90
56428;DHT22;42331;53.578;9.760;2023-03-03T00:40:23;1.30;99.90
56428;DHT22;42331;53.578;9.760;2023-03-03T00:42:57;1.40;99.90
56428;DHT22;42331;53.578;9.760;2023-03-03T00:45:33;1.30;99.90
56428;DHT22;42331;53.578;9.760;2023-03-03T00:51:47;1.40;99.90
56428;DHT22;42331;53.578;9.760;2023-03-03T00:53:59;1.40;99.90
56428;DHT22;42331;53.578;9.760;2023-03-03T00:56:30;1.40;99.90
56428;DHT22;42331;53.578;9.760;2023-03-03T00:59:01;1.40;99.90
56428;DHT22;42331;53.578;9.760;2023-03-03T01:01:32;1.40;99.90
56428;DHT22;42331;53.578;9.760;2023-03-03T01:04:03;1.40;99.90
56428;DHT22;42331;53.578;9.760;2023-03-03T01:06:33;1.40;99.90
56428;DHT22;42331;53.578;9.760;2023-03-03T01:09:04;1.40;99.90
56428;DHT22;42331;53.578;9.760;2023-03-03T01:11:35;1.30;99.90
56428;DHT22;42331;53.578;9.760;2023-03-03T01:14:06;1.30;99.90
56428;DHT22;42331;53.578;9.760;2023-03-03T01:16:37;1.30;99.90
56428;DHT22;42331;53.578;9.760;2023-03-03T01:19:08;1.30;99.90
56428;DHT22;42331;53.578;9.760;2023-03-03T01:21:38;1.30;99.90
56428;DHT22;42331;53.578;9.760;2023-03-03T01:24:09;1.30;99.90
56428;DHT22;42331;53.578;9.760;2023-03-03T01:26:40;1.20;99.90
56428;DHT22;42331;53.578;9.760;2023-03-03T01:29:10;1.20;99.90
56428;DHT22;42331;53.578;9.760;2023-03-03T01:31:41;1.10;99.90
56428;DHT22;42331;53.578;9.760;2023-03-03T01:34:12;1.20;99.90
56428;DHT22;42331;53.578;9.760;2023-03-03T01:36:42;1.20;99.90
56428;DHT22;42331;53.578;9.760;2023-03-03T01:39:13;1.20;99.90
56428;DHT22;42331;53.578;9.760;2023-03-03T01:41:44;1.20;99.90
56428;DHT22;42331;53.578;9.760;2023-03-03T01:44:15;1.20;99.90
56428;DHT22;42331;53.578;9.760;2023-03-03T01:49:43;1.10;99.90
56428;DHT22;42331;53.578;9.760;2023-03-03T01:55:02;1.10;99.90
56428;DHT22;42331;53.578;9.760;2023-03-03T01:57:37;1.10;99.90
56428;DHT22;42331;53.578;9.760;2023-03-03T02:00:10;1.20;99.90
56428;DHT22;42331;53.578;9.760;2023-03-03T02:02:42;1.10;99.90
56428;DHT22;42331;53.578;9.760;2023-03-03T02:05:13;1.10;99.90
56428;DHT22;42331;53.578;9.760;2023-03-03T02:07:45;1.00;99.90
56428;DHT22;42331;53.578;9.760;2023-03-03T02:10:18;1.10;99.90
56428;DHT22;42331;53.578;9.760;2023-03-03T02:12:53;1.00;99.90
56428;DHT22;42331;53.578;9.760;2023-03-03T02:15:25;1.30;99.90
56428;DHT22;42331;53.578;9.760;2023-03-03T02:18:02;1.00;99.90
56428;DHT22;42331;53.578;9.760;2023-03-03T02:26:17;0.90;99.90
56428;DHT22;42331;53.578;9.760;2023-03-03T02:28:52;0.90;99.90
56428;DHT22;42331;53.578;9.760;2023-03-03T02:31:26;0.90;99.90
56428;DHT22;42331;53.578;9.760;2023-03-03T02:33:57;1.00;99.90
56428;DHT22;42331;53.578;9.760;2023-03-03T02:36:31;1.00;99.90
56428;DHT22;42331;53.578;9.760;2023-03-03T02:39:21;1.00;99.90
56428;DHT22;42331;53.578;9.760;2023-03-03T02:42:06;1.00;99.90
56428;DHT22;42331;53.578;9.760;2023-03-03T02:44:38;0.90;99.90
56428;DHT22;42331;53.578;9.760;2023-03-03T02:47:09;0.90;99.90
56428;DHT22;42331;53.578;9.760;2023-03-03T02:49:40;0.90;99.90
56428;DHT22;42331;53.578;9.760;2023-03-03T02:52:12;0.70;99.90
56428;DHT22;42331;53.578;9.760;2023-03-03T02:54:44;0.70;99.90
56428;DHT22;42331;53.578;9.760;2023-03-03T02:57:14;0.70;99.90
56428;DHT22;42331;53.578;9.760;2023-03-03T02:59:45;0.70;99.90
56428;DHT22;42331;53.578;9.760;2023-03-03T03:02:16;0.80;99.90
56428;DHT22;42331;53.578;9.760;2023-03-03T03:04:48;0.80;99.90
56428;DHT22;42331;53.578;9.760;2023-03-03T03:07:19;0.80;99.90
56428;DHT22;42331;53.578;9.760;2023-03-03T03:09:50;0.90;99.90
56428;DHT22;42331;53.578;9.760;2023-03-03T03:12:20;0.90;99.90
56428;DHT22;42331;53.578;9.760;2023-03-03T03:14:51;0.80;99.90
56428;DHT22;42331;53.578;9.760;2023-03-03T03:17:22;0.80;99.90
56428;DHT22;42331;53.578;9.760;2023-03-03T03:19:52;0.80;99.90
56428;DHT22;42331;53.578;9.760;2023-03-03T03:22:23;0.80;99.90
56428;DHT22;42331;53.578;9.760;2023-03-03T03:24:54;0.80;99.90
56428;DHT22;42331;53.578;9.760;2023-03-03T03:27:25;0.80;99.90
56428;DHT22;42331;53.578;9.760;2023-03-03T03:29:55;0.80;99.90
56428;DHT22;42331;53.578;9.760;2023-03-03T03:32:26;0.80;99.90
56428;DHT22;42331;53.578;9.760;2023-03-03T03:34:57;0.80;99.90
56428;DHT22;42331;53.578;9.760;2023-03-03T03:37:28;0.80;99.90
56428;DHT22;42331;53.578;9.760;2023-03-03T03:39:58;0.70;99.90
56428;DHT22;42331;53.578;9.760;2023-03-03T03:42:29;0.60;99.90
56428;DHT22;42331;53.578;9.760;2023-03-03T03:45:00;0.70;99.90
56428;DHT22;42331;53.578;9.760;2023-03-03T03:47:31;0.60;99.90
56428;DHT22;42331;53.578;9.760;2023-03-03T03:50:02;0.70;99.90
56428;DHT22;42331;53.578;9.760;2023-03-03T03:52:33;0.70;99.90
56428;DHT22;42331;53.578;9.760;2023-03-03T03:55:04;0.70;99.90
56428;DHT22;42331;53.578;9.760;2023-03-03T03:57:35;0.70;99.90
56428;DHT22;42331;53.578;9.760;2023-03-03T04:00:06;0.60;99.90
56428;DHT22;42331;53.578;9.760;2023-03-03T04:02:38;0.60;99.90
56428;DHT22;42331;53.578;9.760;2023-03-03T04:05:09;0.50;99.90
56428;DHT22;42331;53.578;9.760;2023-03-03T04:07:40;0.50;99.90
56428;DHT22;42331;53.578;9.760;2023-03-03T04:10:10;0.70;99.90
56428;DHT22;42331;53.578;9.760;2023-03-03T04:12:41;0.70;99.90
56428;DHT22;42331;53.578;9.760;2023-03-03T04:15:13;0.70;99.90
56428;DHT22;42331;53.578;9.760;2023-03-03T04:17:44;0.80;99.90
56428;DHT22;42331;53.578;9.760;2023-03-03T04:20:15;0.90;99.90
56428;DHT22;42331;53.578;9.760;2023-03-03T04:22:46;0.90;99.90
56428;DHT22;42331;53.578;9.760;2023-03-03T04:25:17;0.90;99.90
56428;DHT22;42331;53.578;9.760;2023-03-03T04:27:48;0.90;99.90
56428;DHT22;42331;53.578;9.760;2023-03-03T04:30:19;0.90;99.90
56428;DHT22;42331;53.578;9.760;2023-03-03T04:32:49;0.90;99.90
56428;DHT22;42331;53.578;9.760;2023-03-03T04:35:20;1.00;99.90
56428;DHT22;42331;53.578;9.760;2023-03-03T04:37:51;0.90;99.90
56428;DHT22;42331;53.578;9.760;2023-03-03T04:40:22;1.10;99.90
56428;DHT22;42331;53.578;9.760;2023-03-03T04:42:55;1.00;99.90
56428;DHT22;42331;53.578;9.760;2023-03-03T04:45:32;1.00;99.90
56428;DHT22;42331;53.578;9.760;2023-03-03T04:48:13;0.90;99.90
56428;DHT22;42331;53.578;9.760;2023-03-03T04:50:44;1.00;99.90
56428;DHT22;42331;53.578;9.760;2023-03-03T04:53:15;1.00;99.90
56428;DHT22;42331;53.578;9.760;2023-03-03T04:55:45;1.00;99.90
56428;DHT22;42331;53.578;9.760;2023-03-03T04:58:17;1.00;99.90
56428;DHT22;42331;53.578;9.760;2023-03-03T05:00:55;1.10;99.90
56428;DHT22;42331;53.578;9.760;2023-03-03T05:03:26;1.00;99.90
56428;DHT22;42331;53.578;9.760;2023-03-03T05:05:57;0.90;99.90
56428;DHT22;42331;53.578;9.760;2023-03-03T05:08:28;0.90;99.90
56428;DHT22;42331;53.578;9.760;2023-03-03T05:10:59;0.90;99.90
56428;DHT22;42331;53.578;9.760;2023-03-03T05:13:30;1.00;99.90
56428;DHT22;42331;53.578;9.760;2023-03-03T05:16:01;1.00;99.90
56428;DHT22;42331;53.578;9.760;2023-03-03T05:18:32;1.00;99.90
56428;DHT22;42331;53.578;9.760;2023-03-03T05:21:03;0.90;99.90
56428;DHT22;42331;53.578;9.760;2023-03-03T05:23:34;0.80;99.90
56428;DHT22;42331;53.578;9.760;2023-03-03T05:26:05;0.90;99.90
56428;DHT22;42331;53.578;9.760;2023-03-03T05:28:36;0.90;99.90
56428;DHT22;42331;53.578;9.760;2023-03-03T05:31:06;0.80;99.90
56428;DHT22;42331;53.578;9.760;2023-03-03T05:33:53;0.90;99.90
56428;DHT22;42331;53.578;9.760;2023-03-03T05:36:24;0.90;99.90
56428;DHT22;42331;53.578;9.760;2023-03-03T05:38:57;0.90;99.90
56428;DHT22;42331;53.578;9.760;2023-03-03T05:41:28;0.90;99.90
56428;DHT22;42331;53.578;9.760;2023-03-03T05:43:59;1.00;99.90
56428;DHT22;42331;53.578;9.760;2023-03-03T05:46:30;0.90;99.90
56428;DHT22;42331;53.578;9.760;2023-03-03T05:49:01;0.90;99.90
56428;DHT22;42331;53.578;9.760;2023-03-03T05:51:32;0.90;99.90
56428;DHT22;42331;53.578;9.760;2023-03-03T05:54:02;0.90;99.90
56428;DHT22;42331;53.578;9.760;2023-03-03T05:56:33;0.90;99.90
56428;DHT22;42331;53.578;9.760;2023-03-03T05:59:04;1.00;99.90
56428;DHT22;42331;53.578;9.760;2023-03-03T06:04:47;0.90;99.90
56428;DHT22;42331;53.578;9.760;2023-03-03T06:07:20;0.90;99.90
56428;DHT22;42331;53.578;9.760;2023-03-03T06:10:09;0.90;99.90
56428;DHT22;42331;53.578;9.760;2023-03-03T06:12:47;1.00;99.90
56428;DHT22;42331;53.578;9.760;2023-03-03T06:15:28;1.00;99.90
56428;DHT22;42331;53.578;9.760;2023-03-03T06:17:59;1.00;99.90
56428;DHT22;42331;53.578;9.760;2023-03-03T06:20:30;1.10;99.90
56428;DHT22;42331;53.578;9.760;2023-03-03T06:23:01;1.00;99.90
56428;DHT22;42331;53.578;9.760;2023-03-03T06:25:32;0.90;99.90
56428;DHT22;42331;53.578;9.760;2023-03-03T06:28:05;0.90;99.90
56428;DHT22;42331;53.578;9.760;2023-03-03T06:30:38;0.90;99.90
56428;DHT22;42331;53.578;9.760;2023-03-03T06:33:09;0.80;99.90
56428;DHT22;42331;53.578;9.760;2023-03-03T06:35:40;0.80;99.90
56428;DHT22;42331;53.578;9.760;2023-03-03T06:38:10;0.80;99.90
56428;DHT22;42331;53.578;9.760;2023-03-03T06:40:41;0.90;99.90
56428;DHT22;42331;53.578;9.760;2023-03-03T06:43:15;1.10;99.90
56428;DHT22;42331;53.578;9.760;2023-03-03T06:45:49;1.00;99.90
56428;DHT22;42331;53.578;9.760;2023-03-03T06:48:20;0.90;99.90
56428;DHT22;42331;53.578;9.760;2023-03-03T06:50:50;1.00;99.90
56428;DHT22;42331;53.578;9.760;2023-03-03T06:53:21;0.90;99.90
56428;DHT22;42331;53.578;9.760;2023-03-03T06:55:53;0.90;99.90
56428;DHT22;42331;53.578;9.760;2023-03-03T06:58:25;1.00;99.90
56428;DHT22;42331;53.578;9.760;2023-03-03T07:01:00;1.00;99.90
56428;DHT22;42331;53.578;9.760;2023-03-03T07:03:34;1.10;99.90
56428;DHT22;42331;53.578;9.760;2023-03-03T07:06:21;1.10;99.90
56428;DHT22;42331;53.578;9.760;2023-03-03T07:08:54;1.10;99.90
56428;DHT22;42331;53.578;9.760;2023-03-03T07:11:27;1.00;99.90
56428;DHT22;42331;53.578;9.760;2023-03-03T07:13:57;1.00;99.90
56428;DHT22;42331;53.578;9.760;2023-03-03T07:16:28;1.00;99.90
56428;DHT22;42331;53.578;9.760;2023-03-03T07:19:00;1.00;99.90
56428;DHT22;42331;53.578;9.760;2023-03-03T07:21:35;1.00;99.90
56428;DHT22;42331;53.578;9.760;2023-03-03T07:24:23;1.00;99.90
56428;DHT22;42331;53.578;9.760;2023-03-03T07:27:18;1.00;99.90
56428;DHT22;42331;53.578;9.760;2023-03-03T07:29:54;1.00;99.90
56428;DHT22;42331;53.578;9.760;2023-03-03T07:32:26;1.10;99.90
56428;DHT22;42331;53.578;9.760;2023-03-03T07:34:58;1.10;99.90
56428;DHT22;42331;53.578;9.760;2023-03-03T07:37:34;1.10;99.90
56428;DHT22;42331;53.578;9.760;2023-03-03T07:40:32;1.20;99.90
56428;DHT22;42331;53.578;9.760;2023-03-03T07:48:59;1.30;99.90
56428;DHT22;42331;53.578;9.760;2023-03-03T07:51:38;1.40;99.90
56428;DHT22;42331;53.578;9.760;2023-03-03T07:54:28;1.30;99.90
56428;DHT22;42331;53.578;9.760;2023-03-03T07:57:21;1.30;99.90
56428;DHT22;42331;53.578;9.760;2023-03-03T07:59:59;1.30;99.90
56428;DHT22;42331;53.578;9.760;2023-03-03T08:05:42;1.30;99.90
56428;DHT22;42331;53.578;9.760;2023-03-03T08:08:28;1.40;99.90
56428;DHT22;42331;53.578;9.760;2023-03-03T08:11:00;1.40;99.90
56428;DHT22;42331;53.578;9.760;2023-03-03T08:13:37;1.50;99.90
56428;DHT22;42331;53.578;9.760;2023-03-03T08:18:48;1.60;99.90
56428;DHT22;42331;53.578;9.760;2023-03-03T08:21:23;1.70;99.90
56428;DHT22;42331;53.578;9.760;2023-03-03T08:23:54;1.70;99.90
56428;DHT22;42331;53.578;9.760;2023-03-03T08:26:25;1.80;99.90
56428;DHT22;42331;53.578;9.760;2023-03-03T08:28:56;1.80;99.90
56428;DHT22;42331;53.578;9.760;2023-03-03T08:31:29;1.70;99.90
56428;DHT22;42331;53.578;9.760;2023-03-03T08:33:59;1.80;99.90
56428;DHT22;42331;53.578;9.760;2023-03-03T08:36:31;1.90;99.90
56428;DHT22;42331;53.578;9.760;2023-03-03T08:39:03;1.90;99.90
56428;DHT22;42331;53.578;9.760;2023-03-03T08:41:33;1.90;99.90
56428;DHT22;42331;53.578;9.760;2023-03-03T08:44:04;2.00;99.90
56428;DHT22;42331;53.578;9.760;2023-03-03T08:46:36;2.00;99.90
56428;DHT22;42331;53.578;9.760;2023-03-03T08:49:06;2.00;99.90
56428;DHT22;42331;53.578;9.760;2023-03-03T08:51:37;2.10;99.90
56428;DHT22;42331;53.578;9.760;2023-03-03T08:54:08;2.20;99.90
56428;DHT22;42331;53.578;9.760;2023-03-03T08:56:39;2.30;99.90
56428;DHT22;42331;53.578;9.760;2023-03-03T08:59:09;2.40;99.90
56428;DHT22;42331;53.578;9.760;2023-03-03T09:01:41;2.40;99.90
56428;DHT22;42331;53.578;9.760;2023-03-03T09:04:14;2.50;99.90
56428;DHT22;42331;53.578;9.760;2023-03-03T09:06:44;2.50;99.90
56428;DHT22;42331;53.578;9.760;2023-03-03T09:09:15;2.60;99.90
56428;DHT22;42331;53.578;9.760;2023-03-03T09:11:46;2.50;99.90
56428;DHT22;42331;53.578;9.760;2023-03-03T09:14:17;2.40;99.90
56428;DHT22;42331;53.578;9.760;2023-03-03T09:16:52;2.30;99.90
56428;DHT22;42331;53.578;9.760;2023-03-03T09:19:29;2.40;99.90
56428;DHT22;42331;53.578;9.760;2023-03-03T09:22:20;2.50;99.90
56428;DHT22;42331;53.578;9.760;2023-03-03T09:24:53;2.50;99.90
56428;DHT22;42331;53.578;9.760;2023-03-03T09:27:33;2.50;99.90
56428;DHT22;42331;53.578;9.760;2023-03-03T09:32:46;2.40;99.90
56428;DHT22;42331;53.578;9.760;2023-03-03T09:35:38;2.40;99.90
56428;DHT22;42331;53.578;9.760;2023-03-03T09:38:32;2.40;99.90
56428;DHT22;42331;53.578;9.760;2023-03-03T09:43:56;2.30;99.90
56428;DHT22;42331;53.578;9.760;2023-03-03T09:46:51;2.40;99.90
56428;DHT22;42331;53.578;9.760;2023-03-03T09:49:31;2.60;99.90
56428;DHT22;42331;53.578;9.760;2023-03-03T09:55:04;2.80;99.90
56428;DHT22;42331;53.578;9.760;2023-03-03T09:57:59;2.90;99.90
56428;DHT22;42331;53.578;9.760;2023-03-03T10:06:14;3.20;99.90
56428;DHT22;42331;53.578;9.760;2023-03-03T10:09:15;3.20;99.90
56428;DHT22;42331;53.578;9.760;2023-03-03T10:12:04;3.20;99.90
56428;DHT22;42331;53.578;9.760;2023-03-03T10:20:55;3.10;99.90
56428;DHT22;42331;53.578;9.760;2023-03-03T10:23:54;3.20;99.90
56428;DHT22;42331;53.578;9.760;2023-03-03T10:26:45;3.20;99.90
56428;DHT22;42331;53.578;9.760;2023-03-03T10:41:18;3.70;99.90
56428;DHT22;42331;53.578;9.760;2023-03-03T10:47:17;3.90;99.90
56428;DHT22;42331;53.578;9.760;2023-03-03T10:49:34;3.90;99.90
56428;DHT22;42331;53.578;9.760;2023-03-03T10:52:36;4.00;99.90
56428;DHT22;42331;53.578;9.760;2023-03-03T11:00:51;4.20;99.90
56428;DHT22;42331;53.578;9.760;2023-03-03T11:03:37;4.30;99.90
56428;DHT22;42331;53.578;9.760;2023-03-03T11:08:56;4.30;99.90
56428;DHT22;42331;53.578;9.760;2023-03-03T11:14:26;4.30;99.90
56428;DHT22;42331;53.578;9.760;2023-03-03T11:17:33;4.40;99.90
56428;DHT22;42331;53.578;9.760;2023-03-03T11:26:05;4.60;99.90
56428;DHT22;42331;53.578;9.760;2023-03-03T11:31:17;4.90;99.90
56428;DHT22;42331;53.578;9.760;2023-03-03T11:34:28;4.90;99.90
56428;DHT22;42331;53.578;9.760;2023-03-03T11:37:09;5.10;99.90
56428;DHT22;42331;53.578;9.760;2023-03-03T11:39:43;5.40;99.90
56428;DHT22;42331;53.578;9.760;2023-03-03T11:45:05;5.50;99.90
56428;DHT22;42331;53.578;9.760;2023-03-03T11:50:35;5.70;99.90
56428;DHT22;42331;53.578;9.760;2023-03-03T12:01:56;6.00;99.90
56428;DHT22;42331;53.578;9.760;2023-03-03T12:04:31;6.00;99.90
56428;DHT22;42331;53.578;9.760;2023-03-03T12:07:25;6.00;99.90
56428;DHT22;42331;53.578;9.760;2023-03-03T12:39:11;6.50;99.90
56428;DHT22;42331;53.578;9.760;2023-03-03T12:44:37;6.70;99.90
56428;DHT22;42331;53.578;9.760;2023-03-03T12:47:19;6.80;99.90
56428;DHT22;42331;53.578;9.760;2023-03-03T12:55:36;6.60;99.90
56428;DHT22;42331;53.578;9.760;2023-03-03T13:07:30;6.70;99.90
56428;DHT22;42331;53.578;9.760;2023-03-03T13:10:13;6.60;99.90
56428;DHT22;42331;53.578;9.760;2023-03-03T13:12:52;6.70;99.90
56428;DHT22;42331;53.578;9.760;2023-03-03T13:15:27;6.80;99.90
56428;DHT22;42331;53.578;9.760;2023-03-03T13:21:04;6.70;99.90
56428;DHT22;42331;53.578;9.760;2023-03-03T13:26:49;6.80;99.90
56428;DHT22;42331;53.578;9.760;2023-03-03T13:29:34;7.00;99.90
56428;DHT22;42331;53.578;9.760;2023-03-03T13:32:18;7.00;99.90
56428;DHT22;42331;53.578;9.760;2023-03-03T13:34:59;7.00;99.90
56428;DHT22;42331;53.578;9.760;2023-03-03T13:37:38;6.90;99.90
56428;DHT22;42331;53.578;9.760;2023-03-03T13:45:55;6.90;99.90
56428;DHT22;42331;53.578;9.760;2023-03-03T13:48:57;6.90;99.90
56428;DHT22;42331;53.578;9.760;2023-03-03T13:54:49;6.90;99.90
56428;DHT22;42331;53.578;9.760;2023-03-03T14:05:48;6.80;99.90
56428;DHT22;42331;53.578;9.760;2023-03-03T14:11:40;6.80;99.90
56428;DHT22;42331;53.578;9.760;2023-03-03T14:14:28;6.80;99.90
56428;DHT22;42331;53.578;9.760;2023-03-03T14:17:08;6.90;99.90
56428;DHT22;42331;53.578;9.760;2023-03-03T14:19:50;6.80;99.90
56428;DHT22;42331;53.578;9.760;2023-03-03T14:23:01;6.60;99.90
56428;DHT22;42331;53.578;9.760;2023-03-03T14:25:22;6.80;99.90
56428;DHT22;42331;53.578;9.760;2023-03-03T14:28:09;6.80;99.90
56428;DHT22;42331;53.578;9.760;2023-03-03T14:30:43;6.70;99.90
56428;DHT22;42331;53.578;9.760;2023-03-03T14:33:19;6.70;99.90
56428;DHT22;42331;53.578;9.760;2023-03-03T14:41:11;6.80;99.90
56428;DHT22;42331;53.578;9.760;2023-03-03T14:43:58;6.80;99.90
56428;DHT22;42331;53.578;9.760;2023-03-03T14:49:39;6.60;99.90
56428;DHT22;42331;53.578;9.760;2023-03-03T14:54:46;6.60;99.90
56428;DHT22;42331;53.578;9.760;2023-03-03T15:00:28;6.50;99.90
56428;DHT22;42331;53.578;9.760;2023-03-03T15:03:17;6.50;99.90
56428;DHT22;42331;53.578;9.760;2023-03-03T15:05:51;6.50;99.90
56428;DHT22;42331;53.578;9.760;2023-03-03T15:08:33;6.60;99.90
56428;DHT22;42331;53.578;9.760;2023-03-03T15:13:43;6.50;99.90
56428;DHT22;42331;53.578;9.760;2023-03-03T15:16:20;6.50;99.90
56428;DHT22;42331;53.578;9.760;2023-03-03T15:19:11;6.50;99.90
56428;DHT22;42331;53.578;9.760;2023-03-03T15:22:17;6.40;99.90
56428;DHT22;42331;53.578;9.760;2023-03-03T15:32:08;6.40;99.90
56428;DHT22;42331;53.578;9.760;2023-03-03T15:34:56;6.30;99.90
56428;DHT22;42331;53.578;9.760;2023-03-03T15:37:53;6.20;99.90
56428;DHT22;42331;53.578;9.760;2023-03-03T15:46:14;6.10;99.90
56428;DHT22;42331;53.578;9.760;2023-03-03T15:54:37;6.00;99.90
56428;DHT22;42331;53.578;9.760;2023-03-03T16:00:05;6.00;99.90
56428;DHT22;42331;53.578;9.760;2023-03-03T16:02:51;6.00;99.90
56428;DHT22;42331;53.578;9.760;2023-03-03T16:05:34;6.00;99.90
56428;DHT22;42331;53.578;9.760;2023-03-03T16:08:22;6.00;99.90
56428;DHT22;42331;53.578;9.760;2023-03-03T16:11:07;5.90;99.90
56428;DHT22;42331;53.578;9.760;2023-03-03T16:19:46;5.80;99.90
56428;DHT22;42331;53.578;9.760;2023-03-03T16:22:31;5.80;99.90
56428;DHT22;42331;53.578;9.760;2023-03-03T16:25:38;5.80;99.90
56428;DHT22;42331;53.578;9.760;2023-03-03T16:33:43;5.70;99.90
56428;DHT22;42331;53.578;9.760;2023-03-03T16:42:12;5.70;99.90
56428;DHT22;42331;53.578;9.760;2023-03-03T16:56:17;5.70;99.90
56428;DHT22;42331;53.578;9.760;2023-03-03T17:04:41;5.60;99.90
56428;DHT22;42331;53.578;9.760;2023-03-03T17:13:14;5.50;99.90
56428;DHT22;42331;53.578;9.760;2023-03-03T17:25:46;5.50;99.90
56428;DHT22;42331;53.578;9.760;2023-03-03T17:28:28;5.40;99.90
56428;DHT22;42331;53.578;9.760;2023-03-03T17:32:01;5.40;99.90
56428;DHT22;42331;53.578;9.760;2023-03-03T17:34:48;5.50;99.90
56428;DHT22;42331;53.578;9.760;2023-03-03T17:40:30;5.40;99.90
56428;DHT22;42331;53.578;9.760;2023-03-03T17:43:41;5.40;99.90
56428;DHT22;42331;53.578;9.760;2023-03-03T17:46:32;5.40;99.90
56428;DHT22;42331;53.578;9.760;2023-03-03T17:57:43;5.40;99.90
56428;DHT22;42331;53.578;9.760;2023-03-03T18:00:28;5.30;99.90
56428;DHT22;42331;53.578;9.760;2023-03-03T18:03:37;5.40;99.90
56428;DHT22;42331;53.578;9.760;2023-03-03T18:09:20;5.40;99.90
56428;DHT22;42331;53.578;9.760;2023-03-03T18:18:04;5.30;99.90
56428;DHT22;42331;53.578;9.760;2023-03-03T18:20:47;5.30;99.90
56428;DHT22;42331;53.578;9.760;2023-03-03T18:23:37;5.40;99.90
56428;DHT22;42331;53.578;9.760;2023-03-03T18:26:40;5.40;99.90
56428;DHT22;42331;53.578;9.760;2023-03-03T18:31:59;5.40;99.90
56428;DHT22;42331;53.578;9.760;2023-03-03T18:34:33;5.40;99.90
56428;DHT22;42331;53.578;9.760;2023-03-03T18:42:41;5.30;99.90
56428;DHT22;42331;53.578;9.760;2023-03-03T18:50:42;5.20;99.90
56428;DHT22;42331;53.578;9.760;2023-03-03T18:53:37;5.20;99.90
56428;DHT22;42331;53.578;9.760;2023-03-03T18:57:16;5.20;99.90
56428;DHT22;42331;53.578;9.760;2023-03-03T19:12:56;5.20;99.90
56428;DHT22;42331;53.578;9.760;2023-03-03T19:26:30;4.90;99.90
56428;DHT22;42331;53.578;9.760;2023-03-03T19:35:33;4.80;99.90
56428;DHT22;42331;53.578;9.760;2023-03-03T19:38:35;4.80;99.90
56428;DHT22;42331;53.578;9.760;2023-03-03T19:41:41;4.80;99.90
56428;DHT22;42331;53.578;9.760;2023-03-03T19:44:25;4.80;99.90
56428;DHT22;42331;53.578;9.760;2023-03-03T19:53:05;4.80;99.90
56428;DHT22;42331;53.578;9.760;2023-03-03T19:55:40;4.90;99.90
56428;DHT22;42331;53.578;9.760;2023-03-03T20:01:19;5.00;99.90
56428;DHT22;42331;53.578;9.760;2023-03-03T20:07:01;4.90;99.90
56428;DHT22;42331;53.578;9.760;2023-03-03T20:15:16;5.00;99.90
56428;DHT22;42331;53.578;9.760;2023-03-03T20:23:33;5.00;99.90
56428;DHT22;42331;53.578;9.760;2023-03-03T20:45:32;5.10;99.90
56428;DHT22;42331;53.578;9.760;2023-03-03T20:48:31;5.30;99.90
56428;DHT22;42331;53.578;9.760;2023-03-03T20:51:24;5.20;99.90
56428;DHT22;42331;53.578;9.760;2023-03-03T21:05:19;5.30;99.90
56428;DHT22;42331;53.578;9.760;2023-03-03T21:07:52;5.30;99.90
56428;DHT22;42331;53.578;9.760;2023-03-03T21:10:25;5.30;99.90
56428;DHT22;42331;53.578;9.760;2023-03-03T21:13:18;5.30;99.90
56428;DHT22;42331;53.578;9.760;2023-03-03T21:16:01;5.30;99.90
56428;DHT22;42331;53.578;9.760;2023-03-03T21:18:32;5.30;99.90
56428;DHT22;42331;53.578;9.760;2023-03-03T21:21:03;5.30;99.90
56428;DHT22;42331;53.578;9.760;2023-03-03T21:23:34;5.30;99.90
56428;DHT22;42331;53.578;9.760;2023-03-03T21:26:05;5.20;99.90
56428;DHT22;42331;53.578;9.760;2023-03-03T21:28:36;5.20;99.90
56428;DHT22;42331;53.578;9.760;2023-03-03T21:31:16;5.20;99.90
56428;DHT22;42331;53.578;9.760;2023-03-03T21:36:24;5.20;99.90
56428;DHT22;42331;53.578;9.760;2023-03-03T21:44:50;5.20;99.90
56428;DHT22;42331;53.578;9.760;2023-03-03T21:47:22;5.20;99.90
56428;DHT22;42331;53.578;9.760;2023-03-03T21:49:53;5.10;99.90
56428;DHT22;42331;53.578;9.760;2023-03-03T21:52:24;5.10;99.90
56428;DHT22;42331;53.578;9.760;2023-03-03T21:54:54;5.10;99.90
56428;DHT22;42331;53.578;9.760;2023-03-03T21:57:25;5.10;99.90
56428;DHT22;42331;53.578;9.760;2023-03-03T21:59:57;5.10;99.90
56428;DHT22;42331;53.578;9.760;2023-03-03T22:02:27;5.10;99.90
56428;DHT22;42331;53.578;9.760;2023-03-03T22:04:58;5.00;99.90
56428;DHT22;42331;53.578;9.760;2023-03-03T22:07:29;5.00;99.90
56428;DHT22;42331;53.578;9.760;2023-03-03T22:10:00;5.00;99.90
56428;DHT22;42331;53.578;9.760;2023-03-03T22:12:31;5.00;99.90
56428;DHT22;42331;53.578;9.760;2023-03-03T22:15:01;5.00;99.90
56428;DHT22;42331;53.578;9.760;2023-03-03T22:17:32;5.00;99.90
56428;DHT22;42331;53.578;9.760;2023-03-03T22:20:03;5.00;99.90
56428;DHT22;42331;53.578;9.760;2023-03-03T22:22:34;5.00;99.90
56428;DHT22;42331;53.578;9.760;2023-03-03T22:25:05;5.00;99.90
56428;DHT22;42331;53.578;9.760;2023-03-03T22:27:35;5.00;99.90
56428;DHT22;42331;53.578;9.760;2023-03-03T22:30:08;5.10;99.90
56428;DHT22;42331;53.578;9.760;2023-03-03T22:32:39;5.00;99.90
56428;DHT22;42331;53.578;9.760;2023-03-03T22:35:09;5.10;99.90
56428;DHT22;42331;53.578;9.760;2023-03-03T22:37:40;5.10;99.90
56428;DHT22;42331;53.578;9.760;2023-03-03T22:40:11;5.10;99.90
56428;DHT22;42331;53.578;9.760;2023-03-03T22:42:42;5.00;99.90
56428;DHT22;42331;53.578;9.760;2023-03-03T22:45:13;5.00;99.90
56428;DHT22;42331;53.578;9.760;2023-03-03T22:47:44;5.10;99.90
56428;DHT22;42331;53.578;9.760;2023-03-03T22:50:15;5.10;99.90
56428;DHT22;42331;53.578;9.760;2023-03-03T22:52:46;5.10;99.90
56428;DHT22;42331;53.578;9.760;2023-03-03T22:55:17;5.10;99.90
56428;DHT22;42331;53.578;9.760;2023-03-03T22:57:48;5.10;99.90
56428;DHT22;42331;53.578;9.760;2023-03-03T23:00:19;5.10;99.90
56428;DHT22;42331;53.578;9.760;2023-03-03T23:02:50;5.10;99.90
56428;DHT22;42331;53.578;9.760;2023-03-03T23:05:21;5.20;99.90
56428;DHT22;42331;53.578;9.760;2023-03-03T23:07:52;5.20;99.90
56428;DHT22;42331;53.578;9.760;2023-03-03T23:10:23;5.20;99.90
56428;DHT22;42331;53.578;9.760;2023-03-03T23:12:53;5.30;99.90
56428;DHT22;42331;53.578;9.760;2023-03-03T23:15:24;5.20;99.90